SWA607 KDEN-KELP
Flight info
| Callsign | SWA607 |
|---|---|
| Flight time | 1h 20m |
| Altitude | 37000 |
| Route | SABTH2 JOPLN CME SAMMR3 |
| Aircraft | B738/M-SDE2E3FGHIRWXY/LB1 |
Departure
| Time | 2026-05-09 05:36 |
|---|---|
| Airport | Denver International Airport (KDEN) |
Arrival
| Time | 2026-05-09 06:56 |
|---|---|
| Airport | El Paso International Airport (KELP) |
| Time | Latitude | Longitude | Altitude | Speed | Heading |
|---|---|---|---|---|---|
| 2026-05-09 05:05 | 39.86359 | -104.67837 | 5376 ft | 0 kts | 180° |
| 2026-05-09 05:26 | 39.86382 | -104.67836 | 5375 ft | 4 kts | 180° |
| 2026-05-09 05:26 | 39.86403 | -104.67836 | 5373 ft | 4 kts | 181° |
| 2026-05-09 05:26 | 39.86428 | -104.67835 | 5374 ft | 2 kts | 180° |
| 2026-05-09 05:26 | 39.86429 | -104.67835 | 5373 ft | 0 kts | 180° |
| 2026-05-09 05:29 | 39.86427 | -104.67834 | 5374 ft | 1 kts | 165° |
| 2026-05-09 05:29 | 39.86420 | -104.67804 | 5376 ft | 8 kts | 100° |
| 2026-05-09 05:29 | 39.86415 | -104.67718 | 5376 ft | 10 kts | 90° |
| 2026-05-09 05:30 | 39.86415 | -104.67603 | 5376 ft | 16 kts | 90° |
| 2026-05-09 05:30 | 39.86414 | -104.67442 | 5376 ft | 20 kts | 90° |
| 2026-05-09 05:30 | 39.86412 | -104.67261 | 5374 ft | 20 kts | 90° |
| 2026-05-09 05:30 | 39.86411 | -104.67084 | 5373 ft | 19 kts | 91° |
| 2026-05-09 05:31 | 39.86410 | -104.66906 | 5376 ft | 21 kts | 91° |
| 2026-05-09 05:31 | 39.86408 | -104.66707 | 5376 ft | 22 kts | 90° |
| 2026-05-09 05:31 | 39.86411 | -104.66543 | 5372 ft | 11 kts | 76° |
| 2026-05-09 05:31 | 39.86470 | -104.66499 | 5375 ft | 15 kts | 26° |
| 2026-05-09 05:32 | 39.86502 | -104.66358 | 5377 ft | 20 kts | 90° |
| 2026-05-09 05:32 | 39.86455 | -104.66229 | 5379 ft | 16 kts | 170° |
| 2026-05-09 05:32 | 39.86321 | -104.66227 | 5381 ft | 21 kts | 180° |
| 2026-05-09 05:32 | 39.86185 | -104.66228 | 5381 ft | 19 kts | 180° |
| 2026-05-09 05:33 | 39.86120 | -104.66211 | 5381 ft | 8 kts | 146° |
| 2026-05-09 05:33 | 39.86107 | -104.66176 | 5384 ft | 0 kts | 96° |
| 2026-05-09 05:33 | 39.86107 | -104.66175 | 5384 ft | 1 kts | 96° |
| 2026-05-09 05:34 | 39.86103 | -104.66106 | 5384 ft | 14 kts | 94° |
| 2026-05-09 05:34 | 39.86087 | -104.66020 | 5382 ft | 6 kts | 154° |
| 2026-05-09 05:34 | 39.86074 | -104.66018 | 5385 ft | 0 kts | 178° |
| 2026-05-09 05:35 | 39.85908 | -104.66018 | 5387 ft | 56 kts | 180° |
| 2026-05-09 05:35 | 39.85297 | -104.66024 | 5400 ft | 117 kts | 180° |
| 2026-05-09 05:35 | 39.84311 | -104.66030 | 5456 ft | 163 kts | 179° |
| 2026-05-09 05:35 | 39.83112 | -104.66055 | 5989 ft | 177 kts | 180° |
| 2026-05-09 05:36 | 39.81884 | -104.66089 | 6845 ft | 172 kts | 181° |
| 2026-05-09 05:36 | 39.80610 | -104.66102 | 7200 ft | 196 kts | 181° |
| 2026-05-09 05:36 | 39.79165 | -104.66112 | 7398 ft | 219 kts | 181° |
| 2026-05-09 05:36 | 39.77566 | -104.66125 | 7628 ft | 238 kts | 181° |
| 2026-05-09 05:37 | 39.75860 | -104.66144 | 7837 ft | 261 kts | 181° |
| 2026-05-09 05:37 | 39.73986 | -104.66163 | 8305 ft | 276 kts | 182° |
| 2026-05-09 05:37 | 39.72045 | -104.66184 | 9042 ft | 283 kts | 182° |
| 2026-05-09 05:37 | 39.70058 | -104.66207 | 9700 ft | 289 kts | 184° |
| 2026-05-09 05:38 | 39.68041 | -104.66231 | 9983 ft | 290 kts | 183° |
| 2026-05-09 05:38 | 39.66004 | -104.66257 | 9990 ft | 296 kts | 183° |
| 2026-05-09 05:38 | 39.63961 | -104.66242 | 10062 ft | 299 kts | 179° |
| 2026-05-09 05:38 | 39.61824 | -104.65921 | 10257 ft | 322 kts | 174° |
| 2026-05-09 05:39 | 39.59521 | -104.65448 | 10684 ft | 338 kts | 173° |
| 2026-05-09 05:39 | 39.57203 | -104.64947 | 11309 ft | 346 kts | 173° |
| 2026-05-09 05:39 | 39.54809 | -104.64437 | 12030 ft | 351 kts | 174° |
| 2026-05-09 05:39 | 39.52376 | -104.63932 | 12752 ft | 356 kts | 174° |
| 2026-05-09 05:40 | 39.49918 | -104.63434 | 13489 ft | 360 kts | 175° |
| 2026-05-09 05:40 | 39.47418 | -104.62938 | 14154 ft | 366 kts | 175° |
| 2026-05-09 05:40 | 39.44892 | -104.62441 | 14847 ft | 369 kts | 175° |
| 2026-05-09 05:40 | 39.42349 | -104.61944 | 15548 ft | 372 kts | 175° |
| 2026-05-09 05:41 | 39.39794 | -104.61446 | 16251 ft | 375 kts | 175° |
| 2026-05-09 05:41 | 39.37203 | -104.60941 | 16896 ft | 378 kts | 175° |
| 2026-05-09 05:41 | 39.34597 | -104.60435 | 17560 ft | 383 kts | 175° |
| 2026-05-09 05:41 | 39.31951 | -104.59922 | 18239 ft | 387 kts | 176° |
| 2026-05-09 05:42 | 39.29277 | -104.59403 | 18796 ft | 391 kts | 176° |
| 2026-05-09 05:42 | 39.26585 | -104.58881 | 19346 ft | 396 kts | 176° |
| 2026-05-09 05:42 | 39.23842 | -104.58349 | 19895 ft | 401 kts | 176° |
| 2026-05-09 05:42 | 39.21063 | -104.57812 | 20450 ft | 406 kts | 176° |
| 2026-05-09 05:43 | 39.18259 | -104.57275 | 20988 ft | 411 kts | 176° |
| 2026-05-09 05:43 | 39.15410 | -104.56769 | 21524 ft | 415 kts | 176° |
| 2026-05-09 05:43 | 39.12527 | -104.56270 | 22062 ft | 420 kts | 176° |
| 2026-05-09 05:43 | 39.09617 | -104.55783 | 22575 ft | 424 kts | 177° |
| 2026-05-09 05:44 | 39.06670 | -104.55337 | 23113 ft | 428 kts | 177° |
| 2026-05-09 05:44 | 39.03692 | -104.54908 | 23621 ft | 432 kts | 177° |
| 2026-05-09 05:44 | 39.00689 | -104.54480 | 24036 ft | 437 kts | 177° |
| 2026-05-09 05:44 | 38.97662 | -104.54045 | 24489 ft | 439 kts | 177° |
| 2026-05-09 05:45 | 38.94627 | -104.53605 | 24968 ft | 440 kts | 177° |
| 2026-05-09 05:45 | 38.91615 | -104.53165 | 25419 ft | 442 kts | 177° |
| 2026-05-09 05:45 | 38.88550 | -104.52715 | 25829 ft | 445 kts | 176° |
| 2026-05-09 05:45 | 38.85470 | -104.52263 | 26323 ft | 445 kts | 176° |
| 2026-05-09 05:46 | 38.82391 | -104.51810 | 26729 ft | 447 kts | 176° |
| 2026-05-09 05:46 | 38.79285 | -104.51354 | 27061 ft | 451 kts | 176° |
| 2026-05-09 05:46 | 38.76153 | -104.50896 | 27440 ft | 454 kts | 176° |
| 2026-05-09 05:46 | 38.73006 | -104.50435 | 27824 ft | 456 kts | 176° |
| 2026-05-09 05:47 | 38.69888 | -104.49979 | 28205 ft | 458 kts | 176° |
| 2026-05-09 05:47 | 38.66708 | -104.49514 | 28456 ft | 461 kts | 176° |
| 2026-05-09 05:47 | 38.63509 | -104.49047 | 28800 ft | 464 kts | 176° |
| 2026-05-09 05:47 | 38.61751 | -104.48791 | 28991 ft | 466 kts | 176° |
| 2026-05-09 05:48 | 38.59370 | -104.48446 | 29271 ft | 468 kts | 176° |
| 2026-05-09 05:48 | 38.56197 | -104.47986 | 29640 ft | 470 kts | 176° |
| 2026-05-09 05:48 | 38.52963 | -104.47515 | 30011 ft | 472 kts | 176° |
| 2026-05-09 05:48 | 38.49744 | -104.47043 | 30312 ft | 474 kts | 176° |
| 2026-05-09 05:49 | 38.46457 | -104.46562 | 30610 ft | 476 kts | 175° |
| 2026-05-09 05:49 | 38.43237 | -104.45941 | 30902 ft | 479 kts | 171° |
| 2026-05-09 05:49 | 38.40010 | -104.45106 | 31200 ft | 481 kts | 169° |
| 2026-05-09 05:49 | 38.36742 | -104.44165 | 31524 ft | 482 kts | 169° |
| 2026-05-09 05:50 | 38.33476 | -104.43202 | 31919 ft | 480 kts | 169° |
| 2026-05-09 05:50 | 38.30232 | -104.42259 | 32352 ft | 478 kts | 169° |
| 2026-05-09 05:50 | 38.26992 | -104.41341 | 32765 ft | 476 kts | 169° |
| 2026-05-09 05:50 | 38.23756 | -104.40447 | 33115 ft | 475 kts | 169° |
| 2026-05-09 05:51 | 38.20524 | -104.39569 | 33453 ft | 474 kts | 169° |
| 2026-05-09 05:51 | 38.17303 | -104.38703 | 33853 ft | 472 kts | 169° |
| 2026-05-09 05:51 | 38.14096 | -104.37843 | 34196 ft | 471 kts | 169° |
| 2026-05-09 05:51 | 38.10887 | -104.36984 | 34442 ft | 471 kts | 169° |
| 2026-05-09 05:52 | 38.07675 | -104.36125 | 34669 ft | 472 kts | 169° |
| 2026-05-09 05:52 | 38.04544 | -104.35287 | 34921 ft | 471 kts | 169° |
| 2026-05-09 05:52 | 38.01259 | -104.34411 | 35216 ft | 470 kts | 169° |
| 2026-05-09 05:52 | 37.98063 | -104.33558 | 35471 ft | 470 kts | 169° |
| 2026-05-09 05:53 | 37.94979 | -104.32732 | 35710 ft | 470 kts | 169° |
| 2026-05-09 05:53 | 37.91790 | -104.31877 | 35960 ft | 469 kts | 169° |
| 2026-05-09 05:53 | 37.88679 | -104.31045 | 36223 ft | 469 kts | 169° |
| 2026-05-09 05:53 | 37.85489 | -104.30193 | 36501 ft | 468 kts | 169° |
| 2026-05-09 05:54 | 37.82328 | -104.29350 | 36746 ft | 468 kts | 169° |
| 2026-05-09 05:54 | 37.79144 | -104.28502 | 36929 ft | 469 kts | 169° |
| 2026-05-09 05:54 | 37.72730 | -104.26797 | 36919 ft | 471 kts | 169° |
| 2026-05-09 05:55 | 37.67421 | -104.25387 | 36911 ft | 466 kts | 169° |
| 2026-05-09 05:55 | 37.61118 | -104.23715 | 36925 ft | 463 kts | 169° |
| 2026-05-09 05:56 | 37.54839 | -104.22054 | 36922 ft | 462 kts | 169° |
| 2026-05-09 05:56 | 37.48572 | -104.20398 | 36919 ft | 462 kts | 169° |
| 2026-05-09 05:57 | 37.42281 | -104.18741 | 36915 ft | 462 kts | 170° |
| 2026-05-09 05:57 | 37.39097 | -104.18404 | 36896 ft | 459 kts | 186° |
| 2026-05-09 05:57 | 37.35927 | -104.18774 | 36937 ft | 458 kts | 187° |
| 2026-05-09 05:58 | 37.29627 | -104.19596 | 36911 ft | 459 kts | 187° |
| 2026-05-09 05:58 | 37.26521 | -104.19988 | 37078 ft | 459 kts | 187° |
| 2026-05-09 05:58 | 37.23459 | -104.20359 | 37084 ft | 460 kts | 186° |
| 2026-05-09 05:59 | 37.17163 | -104.21092 | 37073 ft | 460 kts | 186° |
| 2026-05-09 05:59 | 37.11235 | -104.21755 | 37029 ft | 461 kts | 186° |
| 2026-05-09 06:00 | 37.05215 | -104.22425 | 37002 ft | 461 kts | 186° |
| 2026-05-09 06:00 | 36.99126 | -104.23113 | 36966 ft | 462 kts | 186° |
| 2026-05-09 06:01 | 36.92976 | -104.23796 | 36993 ft | 462 kts | 186° |
| 2026-05-09 06:01 | 36.86798 | -104.24479 | 37015 ft | 463 kts | 186° |
| 2026-05-09 06:02 | 36.80708 | -104.25155 | 37045 ft | 462 kts | 185° |
| 2026-05-09 06:02 | 36.75247 | -104.25761 | 37045 ft | 462 kts | 185° |
| 2026-05-09 06:03 | 36.68858 | -104.26470 | 37055 ft | 460 kts | 185° |
| 2026-05-09 06:03 | 36.62496 | -104.27175 | 37033 ft | 458 kts | 185° |
| 2026-05-09 06:04 | 36.56163 | -104.27875 | 36931 ft | 456 kts | 185° |
| 2026-05-09 06:04 | 36.50867 | -104.28459 | 36917 ft | 455 kts | 185° |
| 2026-05-09 06:05 | 36.46714 | -104.29197 | 36830 ft | 451 kts | 192° |
| 2026-05-09 06:05 | 36.43887 | -104.29771 | 36522 ft | 457 kts | 185° |
| 2026-05-09 06:05 | 36.41271 | -104.30024 | 36734 ft | 452 kts | 184° |
| 2026-05-09 06:06 | 36.36703 | -104.30331 | 36811 ft | 454 kts | 183° |
| 2026-05-09 06:06 | 36.31942 | -104.30687 | 36901 ft | 454 kts | 184° |
| 2026-05-09 06:07 | 36.27100 | -104.31115 | 36893 ft | 457 kts | 184° |
| 2026-05-09 06:07 | 36.21676 | -104.31667 | 36911 ft | 459 kts | 185° |
| 2026-05-09 06:08 | 36.16309 | -104.32247 | 36905 ft | 461 kts | 185° |
| 2026-05-09 06:08 | 36.10314 | -104.32905 | 36889 ft | 463 kts | 185° |
| 2026-05-09 06:09 | 36.04073 | -104.33589 | 36884 ft | 462 kts | 185° |
| 2026-05-09 06:09 | 35.98051 | -104.34248 | 36883 ft | 461 kts | 185° |
| 2026-05-09 06:10 | 35.92055 | -104.34900 | 36870 ft | 459 kts | 185° |
| 2026-05-09 06:10 | 35.85703 | -104.35589 | 36865 ft | 457 kts | 185° |
| 2026-05-09 06:11 | 35.79375 | -104.36274 | 36863 ft | 456 kts | 185° |
| 2026-05-09 06:11 | 35.73071 | -104.36957 | 36860 ft | 454 kts | 185° |
| 2026-05-09 06:12 | 35.66793 | -104.37635 | 36850 ft | 453 kts | 185° |
| 2026-05-09 06:12 | 35.60522 | -104.38311 | 36844 ft | 452 kts | 185° |
| 2026-05-09 06:13 | 35.54261 | -104.38995 | 36855 ft | 452 kts | 185° |
| 2026-05-09 06:13 | 35.48033 | -104.39662 | 36849 ft | 453 kts | 185° |
| 2026-05-09 06:14 | 35.41752 | -104.40331 | 36851 ft | 454 kts | 185° |
| 2026-05-09 06:14 | 35.35449 | -104.41006 | 36839 ft | 456 kts | 185° |
| 2026-05-09 06:15 | 35.29113 | -104.41684 | 36841 ft | 457 kts | 185° |
| 2026-05-09 06:15 | 35.22813 | -104.42357 | 36836 ft | 458 kts | 185° |
| 2026-05-09 06:16 | 35.16460 | -104.43035 | 36837 ft | 459 kts | 185° |
| 2026-05-09 06:16 | 35.10098 | -104.43713 | 36928 ft | 459 kts | 185° |
| 2026-05-09 06:17 | 35.03733 | -104.44390 | 36955 ft | 459 kts | 185° |
| 2026-05-09 06:17 | 34.97398 | -104.45063 | 36979 ft | 458 kts | 185° |
| 2026-05-09 06:18 | 34.91044 | -104.45737 | 36988 ft | 458 kts | 185° |
| 2026-05-09 06:18 | 34.84708 | -104.46408 | 36976 ft | 456 kts | 185° |
| 2026-05-09 06:19 | 34.78386 | -104.47076 | 36948 ft | 455 kts | 185° |
| 2026-05-09 06:19 | 34.72116 | -104.47738 | 36922 ft | 454 kts | 185° |
| 2026-05-09 06:20 | 34.65892 | -104.48394 | 36890 ft | 453 kts | 185° |
| 2026-05-09 06:20 | 34.59618 | -104.49054 | 36851 ft | 452 kts | 185° |
| 2026-05-09 06:21 | 34.53351 | -104.49713 | 36858 ft | 452 kts | 185° |
| 2026-05-09 06:21 | 34.47127 | -104.50366 | 36869 ft | 451 kts | 185° |
| 2026-05-09 06:22 | 34.40873 | -104.51021 | 36869 ft | 451 kts | 185° |
| 2026-05-09 06:22 | 34.34667 | -104.51670 | 36861 ft | 451 kts | 185° |
| 2026-05-09 06:23 | 34.28421 | -104.52322 | 36869 ft | 451 kts | 185° |
| 2026-05-09 06:23 | 34.22167 | -104.52975 | 36862 ft | 451 kts | 185° |
| 2026-05-09 06:24 | 34.15939 | -104.53623 | 36859 ft | 451 kts | 185° |
| 2026-05-09 06:24 | 34.09696 | -104.54272 | 36853 ft | 452 kts | 186° |
| 2026-05-09 06:25 | 34.03430 | -104.54923 | 36858 ft | 452 kts | 186° |
| 2026-05-09 06:25 | 33.97156 | -104.55574 | 36857 ft | 453 kts | 186° |
| 2026-05-09 06:26 | 33.90906 | -104.56221 | 36846 ft | 453 kts | 186° |
| 2026-05-09 06:26 | 33.84642 | -104.56868 | 36835 ft | 453 kts | 186° |
| 2026-05-09 06:27 | 33.78353 | -104.57517 | 36844 ft | 453 kts | 186° |
| 2026-05-09 06:27 | 33.72108 | -104.58161 | 36846 ft | 454 kts | 186° |
| 2026-05-09 06:28 | 33.65823 | -104.58808 | 36844 ft | 454 kts | 186° |
| 2026-05-09 06:28 | 33.59518 | -104.59456 | 36866 ft | 454 kts | 186° |
| 2026-05-09 06:29 | 33.53256 | -104.60099 | 36901 ft | 454 kts | 186° |
| 2026-05-09 06:29 | 33.46919 | -104.60748 | 36933 ft | 454 kts | 186° |
| 2026-05-09 06:30 | 33.43797 | -104.61068 | 36728 ft | 457 kts | 186° |
| 2026-05-09 06:30 | 33.40599 | -104.61395 | 36424 ft | 453 kts | 186° |
| 2026-05-09 06:30 | 33.37514 | -104.61710 | 36043 ft | 449 kts | 186° |
| 2026-05-09 06:30 | 33.34439 | -104.62193 | 35665 ft | 443 kts | 198° |
| 2026-05-09 06:31 | 33.31655 | -104.63630 | 35269 ft | 434 kts | 214° |
| 2026-05-09 06:31 | 33.29164 | -104.65639 | 34847 ft | 431 kts | 217° |
| 2026-05-09 06:31 | 33.26727 | -104.67704 | 34448 ft | 428 kts | 217° |
| 2026-05-09 06:31 | 33.24304 | -104.69774 | 34031 ft | 427 kts | 217° |
| 2026-05-09 06:32 | 33.21895 | -104.71820 | 33602 ft | 425 kts | 217° |
| 2026-05-09 06:32 | 33.19481 | -104.73851 | 33176 ft | 422 kts | 217° |
| 2026-05-09 06:32 | 33.17079 | -104.75854 | 32772 ft | 420 kts | 217° |
| 2026-05-09 06:33 | 33.12316 | -104.79798 | 31996 ft | 415 kts | 217° |
| 2026-05-09 06:33 | 33.09952 | -104.81755 | 31615 ft | 412 kts | 216° |
| 2026-05-09 06:33 | 33.07610 | -104.83684 | 31244 ft | 410 kts | 216° |
| 2026-05-09 06:34 | 33.02943 | -104.87524 | 30511 ft | 406 kts | 216° |
| 2026-05-09 06:34 | 33.00624 | -104.89431 | 30159 ft | 404 kts | 217° |
| 2026-05-09 06:34 | 32.98315 | -104.91329 | 29774 ft | 403 kts | 217° |
| 2026-05-09 06:34 | 32.96019 | -104.93217 | 29358 ft | 400 kts | 216° |
| 2026-05-09 06:35 | 32.93741 | -104.95087 | 28974 ft | 398 kts | 216° |
| 2026-05-09 06:35 | 32.91462 | -104.96958 | 28596 ft | 395 kts | 216° |
| 2026-05-09 06:35 | 32.89209 | -104.98806 | 28226 ft | 392 kts | 216° |
| 2026-05-09 06:35 | 32.86988 | -105.00629 | 27872 ft | 389 kts | 216° |
| 2026-05-09 06:36 | 32.84767 | -105.02449 | 27506 ft | 387 kts | 216° |
| 2026-05-09 06:36 | 32.82556 | -105.04259 | 27146 ft | 384 kts | 216° |
| 2026-05-09 06:36 | 32.80362 | -105.06056 | 26789 ft | 382 kts | 216° |
| 2026-05-09 06:36 | 32.78179 | -105.07842 | 26441 ft | 380 kts | 216° |
| 2026-05-09 06:37 | 32.76012 | -105.09615 | 26087 ft | 378 kts | 216° |
| 2026-05-09 06:37 | 32.73843 | -105.11386 | 25733 ft | 376 kts | 216° |
| 2026-05-09 06:37 | 32.71697 | -105.13138 | 25385 ft | 375 kts | 216° |
| 2026-05-09 06:37 | 32.69510 | -105.14832 | 24969 ft | 376 kts | 212° |
| 2026-05-09 06:38 | 32.67271 | -105.16436 | 24597 ft | 375 kts | 211° |
| 2026-05-09 06:38 | 32.65025 | -105.18008 | 24238 ft | 374 kts | 211° |
| 2026-05-09 06:38 | 32.62850 | -105.19530 | 23893 ft | 373 kts | 211° |
| 2026-05-09 06:38 | 32.60615 | -105.21103 | 23537 ft | 373 kts | 211° |
| 2026-05-09 06:39 | 32.58409 | -105.22665 | 23140 ft | 371 kts | 211° |
| 2026-05-09 06:39 | 32.56209 | -105.24228 | 22766 ft | 369 kts | 211° |
| 2026-05-09 06:39 | 32.53985 | -105.25810 | 22398 ft | 367 kts | 212° |
| 2026-05-09 06:39 | 32.51831 | -105.27344 | 22052 ft | 365 kts | 212° |
| 2026-05-09 06:40 | 32.49686 | -105.28871 | 21715 ft | 362 kts | 212° |
| 2026-05-09 06:40 | 32.47539 | -105.30402 | 21361 ft | 360 kts | 212° |
| 2026-05-09 06:40 | 32.45417 | -105.31907 | 21035 ft | 357 kts | 212° |
| 2026-05-09 06:40 | 32.43304 | -105.33406 | 20706 ft | 355 kts | 212° |
| 2026-05-09 06:41 | 32.41196 | -105.34900 | 20378 ft | 352 kts | 212° |
| 2026-05-09 06:41 | 32.39126 | -105.36368 | 20059 ft | 350 kts | 212° |
| 2026-05-09 06:41 | 32.37745 | -105.37348 | 19842 ft | 349 kts | 212° |
| 2026-05-09 06:41 | 32.35650 | -105.38833 | 19506 ft | 348 kts | 212° |
| 2026-05-09 06:42 | 32.33613 | -105.40276 | 19184 ft | 346 kts | 212° |
| 2026-05-09 06:42 | 32.31579 | -105.41717 | 18857 ft | 345 kts | 212° |
| 2026-05-09 06:42 | 32.29519 | -105.43176 | 18510 ft | 344 kts | 212° |
| 2026-05-09 06:42 | 32.27465 | -105.44629 | 18168 ft | 344 kts | 212° |
| 2026-05-09 06:43 | 32.25430 | -105.46068 | 17798 ft | 343 kts | 212° |
| 2026-05-09 06:43 | 32.23405 | -105.47500 | 17445 ft | 341 kts | 212° |
| 2026-05-09 06:43 | 32.21373 | -105.48937 | 17107 ft | 339 kts | 212° |
| 2026-05-09 06:43 | 32.19363 | -105.50356 | 16778 ft | 337 kts | 212° |
| 2026-05-09 06:44 | 32.17355 | -105.51773 | 16439 ft | 335 kts | 213° |
| 2026-05-09 06:44 | 32.15358 | -105.53181 | 16117 ft | 334 kts | 213° |
| 2026-05-09 06:44 | 32.13431 | -105.54685 | 15792 ft | 331 kts | 220° |
| 2026-05-09 06:44 | 32.11663 | -105.56408 | 15481 ft | 328 kts | 223° |
| 2026-05-09 06:45 | 32.09965 | -105.58152 | 15162 ft | 327 kts | 224° |
| 2026-05-09 06:45 | 32.08255 | -105.59907 | 14845 ft | 326 kts | 223° |
| 2026-05-09 06:45 | 32.06533 | -105.61647 | 14529 ft | 325 kts | 223° |
| 2026-05-09 06:45 | 32.04814 | -105.63364 | 14209 ft | 324 kts | 223° |
| 2026-05-09 06:46 | 32.03089 | -105.65073 | 13880 ft | 324 kts | 223° |
| 2026-05-09 06:46 | 32.01368 | -105.66769 | 13549 ft | 323 kts | 223° |
| 2026-05-09 06:46 | 31.99641 | -105.68467 | 13211 ft | 322 kts | 222° |
| 2026-05-09 06:46 | 31.97947 | -105.70155 | 12883 ft | 320 kts | 226° |
| 2026-05-09 06:47 | 31.96656 | -105.72115 | 12555 ft | 314 kts | 242° |
| 2026-05-09 06:47 | 31.95575 | -105.74272 | 12255 ft | 312 kts | 242° |
| 2026-05-09 06:47 | 31.94483 | -105.76472 | 11927 ft | 310 kts | 242° |
| 2026-05-09 06:47 | 31.93388 | -105.78657 | 11611 ft | 309 kts | 242° |
| 2026-05-09 06:48 | 31.92346 | -105.80711 | 11310 ft | 309 kts | 241° |
| 2026-05-09 06:48 | 31.91247 | -105.82860 | 10998 ft | 307 kts | 240° |
| 2026-05-09 06:48 | 31.90156 | -105.84982 | 10685 ft | 306 kts | 240° |
| 2026-05-09 06:48 | 31.89064 | -105.87100 | 10374 ft | 305 kts | 240° |
| 2026-05-09 06:49 | 31.88071 | -105.89024 | 10096 ft | 305 kts | 240° |
| 2026-05-09 06:49 | 31.87273 | -105.91249 | 9798 ft | 297 kts | 263° |
| 2026-05-09 06:49 | 31.87127 | -105.93590 | 9680 ft | 281 kts | 269° |
| 2026-05-09 06:49 | 31.87090 | -105.95843 | 9364 ft | 280 kts | 273° |
| 2026-05-09 06:50 | 31.87239 | -105.98116 | 9013 ft | 282 kts | 277° |
| 2026-05-09 06:50 | 31.87451 | -106.00403 | 8754 ft | 280 kts | 277° |
| 2026-05-09 06:50 | 31.87663 | -106.02673 | 8502 ft | 278 kts | 276° |
| 2026-05-09 06:50 | 31.87865 | -106.04924 | 8254 ft | 276 kts | 276° |
| 2026-05-09 06:51 | 31.88057 | -106.07158 | 8010 ft | 273 kts | 276° |
| 2026-05-09 06:51 | 31.88240 | -106.09370 | 7771 ft | 271 kts | 276° |
| 2026-05-09 06:51 | 31.88418 | -106.11562 | 7525 ft | 265 kts | 276° |
| 2026-05-09 06:51 | 31.88588 | -106.13689 | 7286 ft | 256 kts | 276° |
| 2026-05-09 06:52 | 31.88750 | -106.15739 | 7070 ft | 248 kts | 275° |
| 2026-05-09 06:52 | 31.88906 | -106.17704 | 6898 ft | 235 kts | 275° |
| 2026-05-09 06:52 | 31.89053 | -106.19593 | 6705 ft | 232 kts | 275° |
| 2026-05-09 06:52 | 31.89200 | -106.21478 | 6501 ft | 230 kts | 275° |
| 2026-05-09 06:53 | 31.89345 | -106.23336 | 6279 ft | 227 kts | 275° |
| 2026-05-09 06:53 | 31.89488 | -106.25175 | 6066 ft | 227 kts | 275° |
| 2026-05-09 06:53 | 31.89380 | -106.26994 | 5817 ft | 222 kts | 248° |
| 2026-05-09 06:53 | 31.88459 | -106.28369 | 5650 ft | 209 kts | 225° |
| 2026-05-09 06:54 | 31.87531 | -106.29614 | 5425 ft | 194 kts | 232° |
| 2026-05-09 06:54 | 31.86717 | -106.30798 | 5290 ft | 178 kts | 231° |
| 2026-05-09 06:54 | 31.85964 | -106.31857 | 5159 ft | 164 kts | 229° |
| 2026-05-09 06:54 | 31.85230 | -106.32884 | 5006 ft | 166 kts | 229° |
| 2026-05-09 06:55 | 31.84492 | -106.33918 | 4788 ft | 166 kts | 228° |
| 2026-05-09 06:55 | 31.83757 | -106.34953 | 4526 ft | 164 kts | 229° |
| 2026-05-09 06:55 | 31.83022 | -106.35982 | 4273 ft | 163 kts | 229° |
| 2026-05-09 06:55 | 31.82314 | -106.36992 | 4005 ft | 162 kts | 226° |
| 2026-05-09 06:56 | 31.81619 | -106.37943 | 3947 ft | 138 kts | 231° |
| 2026-05-09 06:56 | 31.81150 | -106.38595 | 3948 ft | 84 kts | 229° |
| 2026-05-09 06:56 | 31.80915 | -106.38927 | 3948 ft | 36 kts | 229° |
| 2026-05-09 06:56 | 31.80771 | -106.39070 | 3946 ft | 18 kts | 205° |
| 2026-05-09 06:57 | 31.80665 | -106.39120 | 3946 ft | 17 kts | 200° |
| 2026-05-09 06:57 | 31.80543 | -106.39172 | 3946 ft | 20 kts | 199° |
| 2026-05-09 06:57 | 31.80402 | -106.39232 | 3946 ft | 23 kts | 201° |
| 2026-05-09 06:57 | 31.80256 | -106.39292 | 3946 ft | 18 kts | 197° |
| 2026-05-09 06:58 | 31.80168 | -106.39258 | 3946 ft | 15 kts | 136° |
| 2026-05-09 06:58 | 31.80086 | -106.39161 | 3946 ft | 17 kts | 143° |
| 2026-05-09 06:58 | 31.79989 | -106.39160 | 3946 ft | 12 kts | 211° |
| 2026-05-09 06:58 | 31.79953 | -106.39223 | 3946 ft | 12 kts | 252° |
| 2026-05-09 06:59 | 31.79930 | -106.39322 | 3946 ft | 12 kts | 257° |
| 2026-05-09 06:59 | 31.79943 | -106.39392 | 3946 ft | 6 kts | 317° |
| 2026-05-09 06:59 | 31.79965 | -106.39405 | 3946 ft | 2 kts | 335° |
| 2026-05-09 06:59 | 31.79968 | -106.39407 | 3946 ft | 0 kts | 335° |